Terminal Aerodrome Forecast
Issued by NWS

Home | Current Version | Previous Version | Text Only | Print | Product List | Glossary On
Versions: 1 2 3 4 5 6 7 8 9 10 11 12 13 14 15 16 17 18 19 20 21 22
000
FTUS43 KEAX 020316 AAA
TAFSTJ
TAF AMD
KSTJ 020316Z 0203/0224 34010KT P6SM SCT025 BKN035
      TEMPO 0203/0206 BKN025
     FM020600 35008KT P6SM BKN025
     FM021500 35008KT P6SM SCT020 BKN030
     FM021900 35008KT P6SM SCT030 BKN040=

USA.gov is the U.S. government's official web portal to all federal, state and local government web resources and services.